sensor_id;sensor_type;location;lat;lon;timestamp;temperature;humidity
983;DHT22;480;48.124;11.578;2023-07-09T00:02:14;23.50;99.90
983;DHT22;480;48.124;11.578;2023-07-09T00:04:46;23.50;99.90
983;DHT22;480;48.124;11.578;2023-07-09T00:07:19;23.40;99.90
983;DHT22;480;48.124;11.578;2023-07-09T00:09:50;23.40;99.90
983;DHT22;480;48.124;11.578;2023-07-09T00:12:19;23.30;99.90
983;DHT22;480;48.124;11.578;2023-07-09T00:14:46;23.20;99.90
983;DHT22;480;48.124;11.578;2023-07-09T00:17:19;23.30;99.90
983;DHT22;480;48.124;11.578;2023-07-09T00:19:50;23.20;99.90
983;DHT22;480;48.124;11.578;2023-07-09T00:22:18;23.20;99.90
983;DHT22;480;48.124;11.578;2023-07-09T00:27:27;23.20;99.90
983;DHT22;480;48.124;11.578;2023-07-09T00:40:21;23.00;99.90
983;DHT22;480;48.124;11.578;2023-07-09T00:42:50;23.00;99.90
983;DHT22;480;48.124;11.578;2023-07-09T00:45:21;23.00;99.90
983;DHT22;480;48.124;11.578;2023-07-09T00:47:55;22.90;99.90
983;DHT22;480;48.124;11.578;2023-07-09T00:50:33;22.90;99.90
983;DHT22;480;48.124;11.578;2023-07-09T00:53:05;22.90;99.90
983;DHT22;480;48.124;11.578;2023-07-09T00:55:53;22.80;99.90
983;DHT22;480;48.124;11.578;2023-07-09T00:58:34;22.80;99.90
983;DHT22;480;48.124;11.578;2023-07-09T01:01:08;22.80;99.90
983;DHT22;480;48.124;11.578;2023-07-09T01:03:53;22.80;99.90
983;DHT22;480;48.124;11.578;2023-07-09T01:06:30;22.70;99.90
983;DHT22;480;48.124;11.578;2023-07-09T01:08:58;22.60;99.90
983;DHT22;480;48.124;11.578;2023-07-09T01:11:34;22.70;99.90
983;DHT22;480;48.124;11.578;2023-07-09T01:14:07;22.60;99.90
983;DHT22;480;48.124;11.578;2023-07-09T01:16:50;22.60;99.90
983;DHT22;480;48.124;11.578;2023-07-09T01:19:23;22.40;99.90
983;DHT22;480;48.124;11.578;2023-07-09T01:21:54;22.40;99.90
983;DHT22;480;48.124;11.578;2023-07-09T01:24:48;22.40;99.90
983;DHT22;480;48.124;11.578;2023-07-09T01:27:17;22.40;99.90
983;DHT22;480;48.124;11.578;2023-07-09T01:29:45;22.40;99.90
983;DHT22;480;48.124;11.578;2023-07-09T01:32:16;22.10;99.90
983;DHT22;480;48.124;11.578;2023-07-09T01:34:46;22.00;99.90
983;DHT22;480;48.124;11.578;2023-07-09T01:37:17;22.00;99.90
983;DHT22;480;48.124;11.578;2023-07-09T01:39:47;22.20;99.90
983;DHT22;480;48.124;11.578;2023-07-09T01:42:16;22.20;99.90
983;DHT22;480;48.124;11.578;2023-07-09T01:44:44;22.20;99.90
983;DHT22;480;48.124;11.578;2023-07-09T01:47:11;22.30;99.90
983;DHT22;480;48.124;11.578;2023-07-09T01:49:39;22.30;99.90
983;DHT22;480;48.124;11.578;2023-07-09T01:52:07;22.20;99.90
983;DHT22;480;48.124;11.578;2023-07-09T01:54:36;22.20;99.90
983;DHT22;480;48.124;11.578;2023-07-09T01:57:18;22.20;99.90
983;DHT22;480;48.124;11.578;2023-07-09T01:59:49;22.00;99.90
983;DHT22;480;48.124;11.578;2023-07-09T02:02:20;21.90;99.90
983;DHT22;480;48.124;11.578;2023-07-09T02:04:48;21.90;99.90
983;DHT22;480;48.124;11.578;2023-07-09T02:07:16;22.00;99.90
983;DHT22;480;48.124;11.578;2023-07-09T02:09:46;22.00;99.90
983;DHT22;480;48.124;11.578;2023-07-09T02:12:14;22.00;99.90
983;DHT22;480;48.124;11.578;2023-07-09T02:17:08;21.90;99.90
983;DHT22;480;48.124;11.578;2023-07-09T02:19:36;21.90;99.90
983;DHT22;480;48.124;11.578;2023-07-09T02:22:05;22.00;99.90
983;DHT22;480;48.124;11.578;2023-07-09T02:24:32;21.80;99.90
983;DHT22;480;48.124;11.578;2023-07-09T02:27:03;21.60;99.90
983;DHT22;480;48.124;11.578;2023-07-09T02:29:32;21.70;99.90
983;DHT22;480;48.124;11.578;2023-07-09T02:34:36;21.70;99.90
983;DHT22;480;48.124;11.578;2023-07-09T02:37:04;21.60;99.90
983;DHT22;480;48.124;11.578;2023-07-09T02:39:31;21.70;99.90
983;DHT22;480;48.124;11.578;2023-07-09T02:41:58;21.70;99.90
983;DHT22;480;48.124;11.578;2023-07-09T02:44:27;21.70;99.90
983;DHT22;480;48.124;11.578;2023-07-09T02:46:54;21.80;99.90
983;DHT22;480;48.124;11.578;2023-07-09T02:49:22;21.70;99.90
983;DHT22;480;48.124;11.578;2023-07-09T02:51:49;21.70;99.90
983;DHT22;480;48.124;11.578;2023-07-09T02:54:21;21.50;99.90
983;DHT22;480;48.124;11.578;2023-07-09T02:56:55;21.50;99.90
983;DHT22;480;48.124;11.578;2023-07-09T02:59:25;21.40;99.90
983;DHT22;480;48.124;11.578;2023-07-09T03:01:56;21.40;99.90
983;DHT22;480;48.124;11.578;2023-07-09T03:04:24;21.20;99.90
983;DHT22;480;48.124;11.578;2023-07-09T03:06:53;21.30;99.90
983;DHT22;480;48.124;11.578;2023-07-09T03:09:21;21.40;99.90
983;DHT22;480;48.124;11.578;2023-07-09T03:11:54;21.40;99.90
983;DHT22;480;48.124;11.578;2023-07-09T03:14:22;21.40;99.90
983;DHT22;480;48.124;11.578;2023-07-09T03:16:49;21.40;99.90
983;DHT22;480;48.124;11.578;2023-07-09T03:19:38;21.50;99.90
983;DHT22;480;48.124;11.578;2023-07-09T03:22:20;21.50;99.90
983;DHT22;480;48.124;11.578;2023-07-09T03:24:49;21.60;99.90
983;DHT22;480;48.124;11.578;2023-07-09T03:27:16;21.60;99.90
983;DHT22;480;48.124;11.578;2023-07-09T03:29:46;21.70;99.90
983;DHT22;480;48.124;11.578;2023-07-09T03:32:21;21.70;99.90
983;DHT22;480;48.124;11.578;2023-07-09T03:34:50;21.80;99.90
983;DHT22;480;48.124;11.578;2023-07-09T03:37:18;21.80;99.90
983;DHT22;480;48.124;11.578;2023-07-09T03:39:47;21.80;99.90
983;DHT22;480;48.124;11.578;2023-07-09T03:42:14;21.80;99.90
983;DHT22;480;48.124;11.578;2023-07-09T03:44:43;21.90;99.90
983;DHT22;480;48.124;11.578;2023-07-09T03:47:12;21.60;99.90
983;DHT22;480;48.124;11.578;2023-07-09T03:49:40;21.50;99.90
983;DHT22;480;48.124;11.578;2023-07-09T03:52:23;21.50;99.90
983;DHT22;480;48.124;11.578;2023-07-09T03:54:52;21.70;99.90
983;DHT22;480;48.124;11.578;2023-07-09T03:57:20;21.70;99.90
983;DHT22;480;48.124;11.578;2023-07-09T03:59:47;21.70;99.90
983;DHT22;480;48.124;11.578;2023-07-09T04:02:14;21.50;99.90
983;DHT22;480;48.124;11.578;2023-07-09T04:04:42;21.40;99.90
983;DHT22;480;48.124;11.578;2023-07-09T04:07:12;21.40;99.90
983;DHT22;480;48.124;11.578;2023-07-09T04:09:41;21.60;99.90
983;DHT22;480;48.124;11.578;2023-07-09T04:12:09;21.60;99.90
983;DHT22;480;48.124;11.578;2023-07-09T04:14:37;21.60;99.90
983;DHT22;480;48.124;11.578;2023-07-09T04:17:06;21.60;99.90
983;DHT22;480;48.124;11.578;2023-07-09T04:19:33;21.60;99.90
983;DHT22;480;48.124;11.578;2023-07-09T04:22:00;21.40;99.90
983;DHT22;480;48.124;11.578;2023-07-09T04:27:05;21.30;99.90
983;DHT22;480;48.124;11.578;2023-07-09T04:29:33;21.30;99.90
983;DHT22;480;48.124;11.578;2023-07-09T04:32:04;21.40;99.90
983;DHT22;480;48.124;11.578;2023-07-09T04:34:32;21.40;99.90
983;DHT22;480;48.124;11.578;2023-07-09T04:37:00;21.20;99.90
983;DHT22;480;48.124;11.578;2023-07-09T04:39:27;21.20;99.90
983;DHT22;480;48.124;11.578;2023-07-09T04:41:55;21.40;99.90
983;DHT22;480;48.124;11.578;2023-07-09T04:44:23;21.20;99.90
983;DHT22;480;48.124;11.578;2023-07-09T04:46:57;21.20;99.90
983;DHT22;480;48.124;11.578;2023-07-09T04:49:26;21.20;99.90
983;DHT22;480;48.124;11.578;2023-07-09T04:51:54;21.30;99.90
983;DHT22;480;48.124;11.578;2023-07-09T04:54:25;21.50;99.90
983;DHT22;480;48.124;11.578;2023-07-09T04:56:53;21.60;99.90
983;DHT22;480;48.124;11.578;2023-07-09T04:59:23;21.60;99.90
983;DHT22;480;48.124;11.578;2023-07-09T05:01:51;21.60;99.90
983;DHT22;480;48.124;11.578;2023-07-09T05:04:18;21.70;99.90
983;DHT22;480;48.124;11.578;2023-07-09T05:06:49;21.60;99.90
983;DHT22;480;48.124;11.578;2023-07-09T05:09:16;21.60;99.90
983;DHT22;480;48.124;11.578;2023-07-09T05:14:19;21.70;99.90
983;DHT22;480;48.124;11.578;2023-07-09T05:16:50;21.90;99.90
983;DHT22;480;48.124;11.578;2023-07-09T05:19:17;21.80;99.90
983;DHT22;480;48.124;11.578;2023-07-09T05:21:45;21.90;99.90
983;DHT22;480;48.124;11.578;2023-07-09T05:24:12;21.90;99.90
983;DHT22;480;48.124;11.578;2023-07-09T05:26:48;21.80;99.90
983;DHT22;480;48.124;11.578;2023-07-09T05:29:36;21.90;99.90
983;DHT22;480;48.124;11.578;2023-07-09T05:32:06;22.00;99.90
983;DHT22;480;48.124;11.578;2023-07-09T05:34:34;22.00;99.90
983;DHT22;480;48.124;11.578;2023-07-09T05:37:01;22.00;99.90
983;DHT22;480;48.124;11.578;2023-07-09T05:39:29;22.00;99.90
983;DHT22;480;48.124;11.578;2023-07-09T05:42:11;22.20;99.90
983;DHT22;480;48.124;11.578;2023-07-09T05:44:39;22.20;99.90
983;DHT22;480;48.124;11.578;2023-07-09T05:47:11;22.20;99.90
983;DHT22;480;48.124;11.578;2023-07-09T05:49:39;22.40;99.90
983;DHT22;480;48.124;11.578;2023-07-09T05:54:43;22.70;99.90
983;DHT22;480;48.124;11.578;2023-07-09T05:57:11;22.80;99.90
983;DHT22;480;48.124;11.578;2023-07-09T06:02:05;23.00;99.90
983;DHT22;480;48.124;11.578;2023-07-09T06:04:36;23.10;99.90
983;DHT22;480;48.124;11.578;2023-07-09T06:07:04;23.30;99.90
983;DHT22;480;48.124;11.578;2023-07-09T06:11:56;23.50;99.90
983;DHT22;480;48.124;11.578;2023-07-09T06:14:23;23.50;99.90
983;DHT22;480;48.124;11.578;2023-07-09T06:16:56;23.70;99.90
983;DHT22;480;48.124;11.578;2023-07-09T06:19:23;24.10;99.90
983;DHT22;480;48.124;11.578;2023-07-09T06:21:54;24.10;99.90
983;DHT22;480;48.124;11.578;2023-07-09T06:24:24;24.30;99.90
983;DHT22;480;48.124;11.578;2023-07-09T06:26:51;24.40;99.90
983;DHT22;480;48.124;11.578;2023-07-09T06:29:22;24.50;99.90
983;DHT22;480;48.124;11.578;2023-07-09T06:31:49;24.60;99.90
983;DHT22;480;48.124;11.578;2023-07-09T06:34:17;24.60;99.90
983;DHT22;480;48.124;11.578;2023-07-09T06:36:44;24.60;99.90
983;DHT22;480;48.124;11.578;2023-07-09T06:39:13;24.60;99.90
983;DHT22;480;48.124;11.578;2023-07-09T06:41:40;24.70;99.90
983;DHT22;480;48.124;11.578;2023-07-09T06:44:08;24.80;99.90
983;DHT22;480;48.124;11.578;2023-07-09T06:46:39;24.70;99.90
983;DHT22;480;48.124;11.578;2023-07-09T06:49:06;24.70;99.90
983;DHT22;480;48.124;11.578;2023-07-09T06:51:34;25.00;99.90
983;DHT22;480;48.124;11.578;2023-07-09T06:54:01;25.10;99.90
983;DHT22;480;48.124;11.578;2023-07-09T06:56:30;25.10;99.90
983;DHT22;480;48.124;11.578;2023-07-09T06:58:57;25.40;99.90
983;DHT22;480;48.124;11.578;2023-07-09T07:01:24;25.50;99.90
983;DHT22;480;48.124;11.578;2023-07-09T07:03:52;25.50;99.90
983;DHT22;480;48.124;11.578;2023-07-09T07:06:21;25.70;99.90
983;DHT22;480;48.124;11.578;2023-07-09T07:08:48;25.70;99.90
983;DHT22;480;48.124;11.578;2023-07-09T07:11:16;25.70;99.90
983;DHT22;480;48.124;11.578;2023-07-09T07:13:45;25.80;99.90
983;DHT22;480;48.124;11.578;2023-07-09T07:16:14;25.90;99.90
983;DHT22;480;48.124;11.578;2023-07-09T07:18:41;26.10;99.90
983;DHT22;480;48.124;11.578;2023-07-09T07:21:08;26.30;99.90
983;DHT22;480;48.124;11.578;2023-07-09T07:23:54;26.60;99.90
983;DHT22;480;48.124;11.578;2023-07-09T07:29:12;26.90;99.90
983;DHT22;480;48.124;11.578;2023-07-09T07:31:39;26.90;99.90
983;DHT22;480;48.124;11.578;2023-07-09T07:34:08;26.80;99.60
983;DHT22;480;48.124;11.578;2023-07-09T07:36:36;27.00;99.90
983;DHT22;480;48.124;11.578;2023-07-09T07:39:07;27.10;99.90
983;DHT22;480;48.124;11.578;2023-07-09T07:41:35;26.90;98.50
983;DHT22;480;48.124;11.578;2023-07-09T07:44:02;27.00;99.00
983;DHT22;480;48.124;11.578;2023-07-09T07:46:33;27.20;98.70
983;DHT22;480;48.124;11.578;2023-07-09T07:49:04;27.50;98.50
983;DHT22;480;48.124;11.578;2023-07-09T07:51:35;27.40;97.20
983;DHT22;480;48.124;11.578;2023-07-09T07:54:04;27.30;97.40
983;DHT22;480;48.124;11.578;2023-07-09T07:59:00;27.50;98.10
983;DHT22;480;48.124;11.578;2023-07-09T08:01:27;27.60;97.60
983;DHT22;480;48.124;11.578;2023-07-09T08:03:56;27.60;96.90
983;DHT22;480;48.124;11.578;2023-07-09T08:06:24;27.70;97.10
983;DHT22;480;48.124;11.578;2023-07-09T08:08:54;27.70;96.40
983;DHT22;480;48.124;11.578;2023-07-09T08:11:21;27.90;96.40
983;DHT22;480;48.124;11.578;2023-07-09T08:13:51;28.10;96.00
983;DHT22;480;48.124;11.578;2023-07-09T08:16:19;28.30;94.80
983;DHT22;480;48.124;11.578;2023-07-09T08:18:47;28.20;95.00
983;DHT22;480;48.124;11.578;2023-07-09T08:21:16;28.40;95.00
983;DHT22;480;48.124;11.578;2023-07-09T08:23:44;28.40;95.20
983;DHT22;480;48.124;11.578;2023-07-09T08:26:13;28.70;94.70
983;DHT22;480;48.124;11.578;2023-07-09T08:28:41;28.80;94.40
983;DHT22;480;48.124;11.578;2023-07-09T08:31:09;28.90;94.60
983;DHT22;480;48.124;11.578;2023-07-09T08:33:37;28.90;94.50
983;DHT22;480;48.124;11.578;2023-07-09T08:36:08;28.90;93.50
983;DHT22;480;48.124;11.578;2023-07-09T08:38:41;28.80;93.70
983;DHT22;480;48.124;11.578;2023-07-09T08:41:20;28.80;93.60
983;DHT22;480;48.124;11.578;2023-07-09T08:44:04;29.00;93.60
983;DHT22;480;48.124;11.578;2023-07-09T08:46:40;29.10;92.80
983;DHT22;480;48.124;11.578;2023-07-09T08:54:11;29.30;92.60
983;DHT22;480;48.124;11.578;2023-07-09T08:56:40;29.30;93.20
983;DHT22;480;48.124;11.578;2023-07-09T09:06:56;29.40;92.50
983;DHT22;480;48.124;11.578;2023-07-09T09:09:31;29.50;92.30
983;DHT22;480;48.124;11.578;2023-07-09T09:12:12;29.30;92.00
983;DHT22;480;48.124;11.578;2023-07-09T09:14:43;29.20;92.10
983;DHT22;480;48.124;11.578;2023-07-09T09:17:16;29.30;92.80
983;DHT22;480;48.124;11.578;2023-07-09T09:22:13;29.40;91.10
983;DHT22;480;48.124;11.578;2023-07-09T09:25:11;29.60;91.10
983;DHT22;480;48.124;11.578;2023-07-09T09:27:56;29.50;90.20
983;DHT22;480;48.124;11.578;2023-07-09T09:43:18;29.70;88.50
983;DHT22;480;48.124;11.578;2023-07-09T09:45:48;29.80;87.40
983;DHT22;480;48.124;11.578;2023-07-09T09:48:17;29.90;87.60
983;DHT22;480;48.124;11.578;2023-07-09T09:53:23;30.10;85.70
983;DHT22;480;48.124;11.578;2023-07-09T09:55:52;30.10;85.50
983;DHT22;480;48.124;11.578;2023-07-09T10:03:37;30.70;86.90
983;DHT22;480;48.124;11.578;2023-07-09T10:06:12;30.80;84.80
983;DHT22;480;48.124;11.578;2023-07-09T10:08:53;31.00;84.30
983;DHT22;480;48.124;11.578;2023-07-09T10:11:29;31.00;84.30
983;DHT22;480;48.124;11.578;2023-07-09T10:14:03;31.00;82.50
983;DHT22;480;48.124;11.578;2023-07-09T10:16:40;31.10;83.80
983;DHT22;480;48.124;11.578;2023-07-09T10:19:17;31.00;81.60
983;DHT22;480;48.124;11.578;2023-07-09T10:21:58;30.60;82.10
983;DHT22;480;48.124;11.578;2023-07-09T10:24:42;30.90;82.60
983;DHT22;480;48.124;11.578;2023-07-09T10:27:18;30.90;82.70
983;DHT22;480;48.124;11.578;2023-07-09T10:30:08;30.80;83.60
983;DHT22;480;48.124;11.578;2023-07-09T10:32:48;31.00;83.00
983;DHT22;480;48.124;11.578;2023-07-09T10:35:27;31.00;81.80
983;DHT22;480;48.124;11.578;2023-07-09T10:38:20;31.00;81.20
983;DHT22;480;48.124;11.578;2023-07-09T10:40:52;31.30;82.60
983;DHT22;480;48.124;11.578;2023-07-09T10:43:25;31.50;80.50
983;DHT22;480;48.124;11.578;2023-07-09T10:46:01;31.30;81.60
983;DHT22;480;48.124;11.578;2023-07-09T10:48:34;31.10;81.30
983;DHT22;480;48.124;11.578;2023-07-09T10:53:43;31.10;81.30
983;DHT22;480;48.124;11.578;2023-07-09T10:56:19;30.90;81.50
983;DHT22;480;48.124;11.578;2023-07-09T11:09:51;30.70;82.70
983;DHT22;480;48.124;11.578;2023-07-09T11:12:27;31.70;86.10
983;DHT22;480;48.124;11.578;2023-07-09T11:17:28;32.60;83.60
983;DHT22;480;48.124;11.578;2023-07-09T11:20:00;32.80;80.10
983;DHT22;480;48.124;11.578;2023-07-09T11:22:36;33.10;80.30
983;DHT22;480;48.124;11.578;2023-07-09T11:25:09;33.80;78.10
983;DHT22;480;48.124;11.578;2023-07-09T11:27:48;34.00;77.20
983;DHT22;480;48.124;11.578;2023-07-09T11:30:22;34.40;77.00
983;DHT22;480;48.124;11.578;2023-07-09T11:32:57;34.10;75.90
983;DHT22;480;48.124;11.578;2023-07-09T11:35:27;33.70;77.00
983;DHT22;480;48.124;11.578;2023-07-09T11:40:48;33.40;76.80
983;DHT22;480;48.124;11.578;2023-07-09T11:43:28;33.70;75.80
983;DHT22;480;48.124;11.578;2023-07-09T11:46:07;33.70;75.80
983;DHT22;480;48.124;11.578;2023-07-09T11:48:40;33.40;75.50
983;DHT22;480;48.124;11.578;2023-07-09T11:51:13;33.20;75.70
983;DHT22;480;48.124;11.578;2023-07-09T11:56:18;33.90;73.80
983;DHT22;480;48.124;11.578;2023-07-09T11:58:49;34.50;73.20
983;DHT22;480;48.124;11.578;2023-07-09T12:01:19;35.00;74.10
983;DHT22;480;48.124;11.578;2023-07-09T12:06:24;35.60;73.90
983;DHT22;480;48.124;11.578;2023-07-09T12:08:53;35.70;71.60
983;DHT22;480;48.124;11.578;2023-07-09T12:11:25;35.70;71.70
983;DHT22;480;48.124;11.578;2023-07-09T12:13:54;35.10;72.70
983;DHT22;480;48.124;11.578;2023-07-09T12:21:33;33.40;75.90
983;DHT22;480;48.124;11.578;2023-07-09T12:24:02;33.40;75.50
983;DHT22;480;48.124;11.578;2023-07-09T12:26:41;33.50;75.30
983;DHT22;480;48.124;11.578;2023-07-09T12:29:30;34.10;74.80
983;DHT22;480;48.124;11.578;2023-07-09T12:32:09;34.60;73.90
983;DHT22;480;48.124;11.578;2023-07-09T12:34:40;34.80;73.40
983;DHT22;480;48.124;11.578;2023-07-09T12:37:12;34.30;73.10
983;DHT22;480;48.124;11.578;2023-07-09T12:39:43;34.50;73.30
983;DHT22;480;48.124;11.578;2023-07-09T12:42:18;34.00;72.20
983;DHT22;480;48.124;11.578;2023-07-09T12:47:24;33.40;73.50
983;DHT22;480;48.124;11.578;2023-07-09T12:52:24;33.10;74.00
983;DHT22;480;48.124;11.578;2023-07-09T12:54:55;33.50;71.80
983;DHT22;480;48.124;11.578;2023-07-09T12:57:26;33.60;73.70
983;DHT22;480;48.124;11.578;2023-07-09T12:59:54;33.90;71.10
983;DHT22;480;48.124;11.578;2023-07-09T13:02:26;34.70;73.00
983;DHT22;480;48.124;11.578;2023-07-09T13:23:04;35.70;70.60
983;DHT22;480;48.124;11.578;2023-07-09T13:25:38;36.10;70.00
983;DHT22;480;48.124;11.578;2023-07-09T13:28:14;35.70;69.40
983;DHT22;480;48.124;11.578;2023-07-09T13:30:42;36.10;68.50
983;DHT22;480;48.124;11.578;2023-07-09T13:33:10;36.00;69.60
983;DHT22;480;48.124;11.578;2023-07-09T13:35:38;36.10;68.70
983;DHT22;480;48.124;11.578;2023-07-09T13:38:17;35.80;68.10
983;DHT22;480;48.124;11.578;2023-07-09T13:40:50;35.80;67.50
983;DHT22;480;48.124;11.578;2023-07-09T13:43:29;35.80;68.60
983;DHT22;480;48.124;11.578;2023-07-09T13:45:57;35.70;67.50
983;DHT22;480;48.124;11.578;2023-07-09T13:48:25;35.60;68.50
983;DHT22;480;48.124;11.578;2023-07-09T13:50:54;35.40;67.90
983;DHT22;480;48.124;11.578;2023-07-09T13:53:28;35.60;68.10
983;DHT22;480;48.124;11.578;2023-07-09T13:55:57;35.60;69.70
983;DHT22;480;48.124;11.578;2023-07-09T13:58:27;36.10;68.20
983;DHT22;480;48.124;11.578;2023-07-09T14:03:47;36.30;68.00
983;DHT22;480;48.124;11.578;2023-07-09T14:06:16;36.70;66.50
983;DHT22;480;48.124;11.578;2023-07-09T14:09:03;36.00;66.50
983;DHT22;480;48.124;11.578;2023-07-09T14:11:32;35.00;67.50
983;DHT22;480;48.124;11.578;2023-07-09T14:14:00;35.00;70.30
983;DHT22;480;48.124;11.578;2023-07-09T14:16:29;35.20;69.30
983;DHT22;480;48.124;11.578;2023-07-09T14:19:02;34.30;69.00
983;DHT22;480;48.124;11.578;2023-07-09T14:21:43;34.50;70.10
983;DHT22;480;48.124;11.578;2023-07-09T14:24:22;34.70;71.30
983;DHT22;480;48.124;11.578;2023-07-09T14:26:53;34.70;69.40
983;DHT22;480;48.124;11.578;2023-07-09T14:29:21;35.00;68.30
983;DHT22;480;48.124;11.578;2023-07-09T14:31:51;34.80;68.80
983;DHT22;480;48.124;11.578;2023-07-09T14:34:21;35.20;68.70
983;DHT22;480;48.124;11.578;2023-07-09T14:36:50;35.20;69.10
983;DHT22;480;48.124;11.578;2023-07-09T14:39:20;35.80;68.90
983;DHT22;480;48.124;11.578;2023-07-09T14:41:48;35.90;67.60
983;DHT22;480;48.124;11.578;2023-07-09T14:44:22;35.60;65.80
983;DHT22;480;48.124;11.578;2023-07-09T14:46:53;35.60;68.10
983;DHT22;480;48.124;11.578;2023-07-09T14:49:22;35.30;68.30
983;DHT22;480;48.124;11.578;2023-07-09T14:51:50;34.80;68.00
983;DHT22;480;48.124;11.578;2023-07-09T14:54:23;34.90;68.70
983;DHT22;480;48.124;11.578;2023-07-09T14:56:54;34.90;68.50
983;DHT22;480;48.124;11.578;2023-07-09T14:59:22;34.70;68.90
983;DHT22;480;48.124;11.578;2023-07-09T15:02:02;34.50;67.80
983;DHT22;480;48.124;11.578;2023-07-09T15:04:31;34.50;68.80
983;DHT22;480;48.124;11.578;2023-07-09T15:07:00;34.10;72.10
983;DHT22;480;48.124;11.578;2023-07-09T15:09:41;34.30;67.70
983;DHT22;480;48.124;11.578;2023-07-09T15:12:16;34.30;72.00
983;DHT22;480;48.124;11.578;2023-07-09T15:14:43;34.10;71.30
983;DHT22;480;48.124;11.578;2023-07-09T15:17:10;33.90;70.50
983;DHT22;480;48.124;11.578;2023-07-09T15:19:38;34.30;71.20
983;DHT22;480;48.124;11.578;2023-07-09T15:22:24;34.40;69.20
983;DHT22;480;48.124;11.578;2023-07-09T15:24:55;34.00;70.20
983;DHT22;480;48.124;11.578;2023-07-09T15:27:22;34.30;68.70
983;DHT22;480;48.124;11.578;2023-07-09T15:29:51;34.20;70.10
983;DHT22;480;48.124;11.578;2023-07-09T15:32:18;33.60;68.60
983;DHT22;480;48.124;11.578;2023-07-09T15:34:46;33.00;69.00
983;DHT22;480;48.124;11.578;2023-07-09T15:37:17;33.20;70.30
983;DHT22;480;48.124;11.578;2023-07-09T15:39:47;33.40;70.40
983;DHT22;480;48.124;11.578;2023-07-09T15:42:19;33.20;72.50
983;DHT22;480;48.124;11.578;2023-07-09T15:49:47;33.80;70.50
983;DHT22;480;48.124;11.578;2023-07-09T15:52:15;33.90;71.10
983;DHT22;480;48.124;11.578;2023-07-09T15:54:45;33.40;71.10
983;DHT22;480;48.124;11.578;2023-07-09T15:57:15;33.20;73.00
983;DHT22;480;48.124;11.578;2023-07-09T15:59:44;33.40;70.00
983;DHT22;480;48.124;11.578;2023-07-09T16:02:27;33.70;70.10
983;DHT22;480;48.124;11.578;2023-07-09T16:04:54;33.80;71.10
983;DHT22;480;48.124;11.578;2023-07-09T16:07:21;33.50;71.30
983;DHT22;480;48.124;11.578;2023-07-09T16:09:50;33.20;72.00
983;DHT22;480;48.124;11.578;2023-07-09T16:12:18;32.90;71.40
983;DHT22;480;48.124;11.578;2023-07-09T16:14:47;32.60;71.50
983;DHT22;480;48.124;11.578;2023-07-09T16:17:15;32.30;71.70
983;DHT22;480;48.124;11.578;2023-07-09T16:19:42;32.20;71.80
983;DHT22;480;48.124;11.578;2023-07-09T16:22:10;32.00;71.90
983;DHT22;480;48.124;11.578;2023-07-09T16:24:37;31.80;72.20
983;DHT22;480;48.124;11.578;2023-07-09T16:27:06;31.70;72.80
983;DHT22;480;48.124;11.578;2023-07-09T16:29:36;31.50;73.70
983;DHT22;480;48.124;11.578;2023-07-09T16:35:02;31.70;73.90
983;DHT22;480;48.124;11.578;2023-07-09T16:37:30;31.70;73.80
983;DHT22;480;48.124;11.578;2023-07-09T16:39:57;31.50;75.20
983;DHT22;480;48.124;11.578;2023-07-09T16:42:24;31.50;74.60
983;DHT22;480;48.124;11.578;2023-07-09T16:44:51;31.40;75.00
983;DHT22;480;48.124;11.578;2023-07-09T16:47:19;31.40;76.10
983;DHT22;480;48.124;11.578;2023-07-09T16:49:50;31.30;75.60
983;DHT22;480;48.124;11.578;2023-07-09T16:52:22;31.30;75.40
983;DHT22;480;48.124;11.578;2023-07-09T16:54:52;31.30;75.10
983;DHT22;480;48.124;11.578;2023-07-09T16:57:23;31.30;74.30
983;DHT22;480;48.124;11.578;2023-07-09T16:59:53;31.30;75.20
983;DHT22;480;48.124;11.578;2023-07-09T17:02:26;31.20;73.30
983;DHT22;480;48.124;11.578;2023-07-09T17:04:57;31.20;73.50
983;DHT22;480;48.124;11.578;2023-07-09T17:07:30;31.20;73.50
983;DHT22;480;48.124;11.578;2023-07-09T17:09:59;31.30;73.50
983;DHT22;480;48.124;11.578;2023-07-09T17:12:28;31.30;73.50
983;DHT22;480;48.124;11.578;2023-07-09T17:14:58;31.20;74.80
983;DHT22;480;48.124;11.578;2023-07-09T17:17:26;31.30;73.60
983;DHT22;480;48.124;11.578;2023-07-09T17:19:54;31.20;72.80
983;DHT22;480;48.124;11.578;2023-07-09T17:25:33;31.30;74.90
983;DHT22;480;48.124;11.578;2023-07-09T17:28:13;31.10;73.00
983;DHT22;480;48.124;11.578;2023-07-09T17:30:44;31.10;73.10
983;DHT22;480;48.124;11.578;2023-07-09T17:33:12;31.10;74.20
983;DHT22;480;48.124;11.578;2023-07-09T17:35:41;31.10;72.80
983;DHT22;480;48.124;11.578;2023-07-09T17:38:13;31.10;73.50
983;DHT22;480;48.124;11.578;2023-07-09T17:40:44;31.00;72.30
983;DHT22;480;48.124;11.578;2023-07-09T17:43:13;31.00;72.70
983;DHT22;480;48.124;11.578;2023-07-09T17:45:42;31.00;72.90
983;DHT22;480;48.124;11.578;2023-07-09T17:48:14;30.90;71.80
983;DHT22;480;48.124;11.578;2023-07-09T17:50:42;30.90;73.10
983;DHT22;480;48.124;11.578;2023-07-09T17:53:15;30.90;73.10
983;DHT22;480;48.124;11.578;2023-07-09T17:55:50;30.80;72.20
983;DHT22;480;48.124;11.578;2023-07-09T17:58:21;30.70;72.00
983;DHT22;480;48.124;11.578;2023-07-09T18:00:49;30.60;72.00
983;DHT22;480;48.124;11.578;2023-07-09T18:03:19;30.60;72.20
983;DHT22;480;48.124;11.578;2023-07-09T18:05:48;30.60;73.60
983;DHT22;480;48.124;11.578;2023-07-09T18:08:20;30.50;72.40
983;DHT22;480;48.124;11.578;2023-07-09T18:10:49;30.40;72.30
983;DHT22;480;48.124;11.578;2023-07-09T18:13:19;30.40;72.00
983;DHT22;480;48.124;11.578;2023-07-09T18:15:50;30.30;72.10
983;DHT22;480;48.124;11.578;2023-07-09T18:18:18;30.30;75.50
983;DHT22;480;48.124;11.578;2023-07-09T18:20:45;30.30;72.00
983;DHT22;480;48.124;11.578;2023-07-09T18:23:13;30.20;73.10
983;DHT22;480;48.124;11.578;2023-07-09T18:25:45;30.30;76.00
983;DHT22;480;48.124;11.578;2023-07-09T18:28:27;30.40;76.20
983;DHT22;480;48.124;11.578;2023-07-09T18:30:57;30.50;76.60
983;DHT22;480;48.124;11.578;2023-07-09T18:33:25;30.60;76.60
983;DHT22;480;48.124;11.578;2023-07-09T18:35:53;30.30;76.80
983;DHT22;480;48.124;11.578;2023-07-09T18:38:20;30.40;76.70
983;DHT22;480;48.124;11.578;2023-07-09T18:40:50;30.40;83.50
983;DHT22;480;48.124;11.578;2023-07-09T18:43:21;30.30;83.30
983;DHT22;480;48.124;11.578;2023-07-09T18:48:18;30.40;88.40
983;DHT22;480;48.124;11.578;2023-07-09T18:50:49;30.30;85.60
983;DHT22;480;48.124;11.578;2023-07-09T18:53:22;30.30;86.20
983;DHT22;480;48.124;11.578;2023-07-09T18:55:51;30.20;85.10
983;DHT22;480;48.124;11.578;2023-07-09T18:58:24;30.20;85.90
983;DHT22;480;48.124;11.578;2023-07-09T19:00:52;30.10;85.30
983;DHT22;480;48.124;11.578;2023-07-09T19:03:23;30.10;85.30